createdAt,value
2022-09-23T00:01:00.678Z,96735.13
2022-09-23T00:03:28.719Z,96705.97
2022-09-23T00:06:05.885Z,96733.03
2022-09-23T00:08:33.371Z,96706.44
2022-09-23T00:11:08.399Z,96756.03
2022-09-23T00:13:36.192Z,96731.25
2022-09-23T00:16:04.916Z,96712.47
2022-09-23T00:18:31.620Z,96755.72
2022-09-23T00:20:58.269Z,96706.25
2022-09-23T00:23:24.888Z,96738.09
2022-09-23T00:25:59.652Z,96750.88
2022-09-23T00:28:26.361Z,96702.66
2022-09-23T00:30:53.006Z,96757.38
2022-09-23T00:33:19.674Z,96709.66
2022-09-23T00:35:46.342Z,96713.06
2022-09-23T00:38:14.219Z,96756.84
2022-09-23T00:40:46.149Z,96709.41
2022-09-23T00:43:14.152Z,96749.81
2022-09-23T00:45:46.750Z,96678.63
2022-09-23T00:48:22.484Z,96742.19
2022-09-23T00:50:53.474Z,96745.09
2022-09-23T00:53:24.077Z,96705.53
2022-09-23T00:55:54.821Z,96735.25
2022-09-23T00:58:27.941Z,96714.88
2022-09-23T01:00:55.583Z,96701.09
2022-09-23T01:03:22.983Z,96697.44
2022-09-23T01:05:50.299Z,96696.38
2022-09-23T01:08:17.569Z,96695.63
2022-09-23T01:11:24.960Z,96688.31
2022-09-23T01:14:06.608Z,96667.72
2022-09-23T01:16:42.917Z,96710.47
2022-09-23T01:19:21.590Z,96718.53
2022-09-23T01:21:57.064Z,96722.22
2022-09-23T01:24:46.206Z,96712.03
2022-09-23T01:27:46.762Z,96676.59
2022-09-23T01:30:48.810Z,96718.81
2022-09-23T01:33:36.783Z,96721.16
2022-09-23T01:36:13.767Z,96676.06
2022-09-23T01:39:10.906Z,96712.56
2022-09-23T01:41:52.788Z,96717.25
2022-09-23T01:44:39.111Z,96715.94
2022-09-23T01:47:14.662Z,96653.63
2022-09-23T01:49:57.308Z,96720.13
2022-09-23T01:52:35.381Z,96712.28
2022-09-23T01:55:26.868Z,96708.63
2022-09-23T01:58:01.066Z,96677.59
2022-09-23T02:00:30.058Z,96652.84
2022-09-23T02:03:05.972Z,96696.91
2022-09-23T02:05:44.656Z,96689.34
2022-09-23T02:08:11.202Z,96688.06
2022-09-23T02:10:53.813Z,96639.84
2022-09-23T02:13:30.934Z,96629.94
2022-09-23T02:16:01.355Z,96694.06
2022-09-23T02:18:38.818Z,96681.28
2022-09-23T02:21:09.488Z,96687.53
2022-09-23T02:23:42.479Z,96694.03
2022-09-23T02:26:19.387Z,96694.81
2022-09-23T02:28:53.522Z,96701.09
2022-09-23T02:31:30.664Z,96693.50
2022-09-23T02:33:59.985Z,96686.72
2022-09-23T02:36:31.458Z,96694.25
2022-09-23T02:39:06.039Z,96671.03
2022-09-23T02:41:44.897Z,96610.03
2022-09-23T02:44:15.960Z,96672.88
2022-09-23T02:46:43.677Z,96681.28
2022-09-23T02:49:15.932Z,96694.06
2022-09-23T02:51:42.778Z,96633.84
2022-09-23T02:54:14.888Z,96667.44
2022-09-23T02:56:42.156Z,96665.38
2022-09-23T02:59:10.086Z,96678.13
2022-09-23T03:01:47.836Z,96661.19
2022-09-23T03:04:21.534Z,96674.22
2022-09-23T03:07:06.298Z,96639.03
2022-09-23T03:09:44.570Z,96645.53
2022-09-23T03:12:21.499Z,96648.16
2022-09-23T03:14:59.095Z,96641.09
2022-09-23T03:17:34.229Z,96648.63
2022-09-23T03:20:12.549Z,96660.81
2022-09-23T03:22:48.792Z,96636.63
2022-09-23T03:25:21.264Z,96644.72
2022-09-23T03:27:48.130Z,96657.75
2022-09-23T03:30:14.924Z,96611.13
2022-09-23T03:32:45.508Z,96656.75
2022-09-23T03:35:13.403Z,96623.34
2022-09-23T03:38:09.502Z,96648.34
2022-09-23T03:40:43.601Z,96623.06
2022-09-23T03:43:13.421Z,96649.41
2022-09-23T03:45:42.602Z,96649.69
2022-09-23T03:48:09.547Z,96637.44
2022-09-23T03:50:36.349Z,96645.47
2022-09-23T03:53:03.008Z,96655.03
2022-09-23T03:55:29.581Z,96615.16
2022-09-23T03:57:56.740Z,96646.75
2022-09-23T04:00:23.566Z,96620.94
2022-09-23T04:02:50.147Z,96610.25
2022-09-23T04:05:17.909Z,96577.16
2022-09-23T04:07:44.985Z,96636.59
2022-09-23T04:10:11.790Z,96582.00
2022-09-23T04:12:38.548Z,96577.28
2022-09-23T04:15:05.696Z,96634.72
2022-09-23T04:17:32.305Z,96600.31
2022-09-23T04:19:58.973Z,96566.59
2022-09-23T04:22:25.725Z,96620.59
2022-09-23T04:24:52.340Z,96627.63
2022-09-23T04:27:18.973Z,96607.31
2022-09-23T04:29:45.557Z,96571.88
2022-09-23T04:32:12.203Z,96593.75
2022-09-23T04:34:38.825Z,96570.81
2022-09-23T04:37:05.367Z,96607.78
2022-09-23T04:39:32.009Z,96572.06
2022-09-23T04:41:59.662Z,96622.44
2022-09-23T04:44:28.103Z,96619.81
2022-09-23T04:46:54.825Z,96611.69
2022-09-23T04:49:21.428Z,96607.31
2022-09-23T04:51:48.030Z,96589.59
2022-09-23T04:54:15.072Z,96569.13
2022-09-23T04:56:42.474Z,96616.91
2022-09-23T04:59:09.099Z,96620.59
2022-09-23T05:01:36.587Z,96608.06
2022-09-23T05:04:07.511Z,96622.94
2022-09-23T05:06:35.456Z,96626.63
2022-09-23T05:09:04.624Z,96597.72
2022-09-23T05:11:31.622Z,96565.88
2022-09-23T05:13:59.001Z,96624.84
2022-09-23T05:16:27.121Z,96633.44
2022-09-23T05:18:54.451Z,96596.47
2022-09-23T05:21:23.355Z,96584.94
2022-09-23T05:23:55.283Z,96629.53
2022-09-23T05:26:25.294Z,96622.25
2022-09-23T05:28:52.608Z,96604.84
2022-09-23T05:31:21.793Z,96630.91
2022-09-23T05:34:02.423Z,96632.75
2022-09-23T05:36:35.530Z,96563.19
2022-09-23T05:39:05.416Z,96634.09
2022-09-23T05:41:33.879Z,96511.09
2022-09-23T05:44:01.103Z,96520.91
2022-09-23T05:46:29.948Z,96629.13
2022-09-23T05:49:02.103Z,96620.47
2022-09-23T05:51:31.075Z,96589.50
2022-09-23T05:53:58.816Z,96597.88
2022-09-23T05:56:27.534Z,96604.38
2022-09-23T05:58:56.215Z,96614.81
2022-09-23T06:01:25.647Z,96633.03
2022-09-23T06:03:53.575Z,96605.94
2022-09-23T06:06:26.111Z,96623.38
2022-09-23T06:08:52.745Z,96616.09
2022-09-23T06:11:21.427Z,96589.53
2022-09-23T06:13:49.365Z,96619.78
2022-09-23T06:16:16.596Z,96569.50
2022-09-23T06:18:45.129Z,96607.53
2022-09-23T06:21:17.128Z,96606.22
2022-09-23T06:23:44.899Z,96628.09
2022-09-23T06:26:14.302Z,96601.28
2022-09-23T06:28:42.933Z,96623.94
2022-09-23T06:31:16.864Z,96626.53
2022-09-23T06:33:44.979Z,96599.94
2022-09-23T06:36:19.379Z,96616.09
2022-09-23T06:38:51.194Z,96586.13
2022-09-23T06:41:17.860Z,96609.50
2022-09-23T06:43:44.466Z,96598.75
2022-09-23T06:46:15.587Z,96634.56
2022-09-23T06:48:46.413Z,96591.00
2022-09-23T06:51:22.951Z,96637.94
2022-09-23T06:53:49.984Z,96631.53
2022-09-23T06:56:17.907Z,96606.38
2022-09-23T06:58:44.509Z,96573.63
2022-09-23T07:01:13.413Z,96649.69
2022-09-23T07:03:40.033Z,96592.59
2022-09-23T07:06:07.206Z,96650.25
2022-09-23T07:08:35.073Z,96651.63
2022-09-23T07:11:06.576Z,96640.00
2022-09-23T07:13:34.290Z,96657.50
2022-09-23T07:16:02.172Z,96641.13
2022-09-23T07:18:36.731Z,96654.41
2022-09-23T07:21:15.746Z,96633.63
2022-09-23T07:23:45.986Z,96660.38
2022-09-23T07:26:14.156Z,96631.50
2022-09-23T07:28:40.820Z,96661.78
2022-09-23T07:31:10.070Z,96637.00
2022-09-23T07:33:38.467Z,96650.66
2022-09-23T07:36:08.441Z,96649.72
2022-09-23T07:38:35.446Z,96609.72
2022-09-23T07:41:10.268Z,96582.56
2022-09-23T07:43:37.897Z,96661.88
2022-09-23T07:46:08.486Z,96638.66
2022-09-23T07:48:36.067Z,96621.06
2022-09-23T07:51:21.252Z,96663.47
2022-09-23T07:53:49.321Z,96641.75
2022-09-23T07:56:17.314Z,96658.81
2022-09-23T07:58:43.941Z,96648.69
2022-09-23T08:01:12.145Z,96654.00
2022-09-23T08:03:39.440Z,96591.03
2022-09-23T08:06:12.253Z,96629.97
2022-09-23T08:08:43.408Z,96659.09
2022-09-23T08:11:13.210Z,96637.69
2022-09-23T08:13:40.479Z,96656.03
2022-09-23T08:16:07.174Z,96617.41
2022-09-23T08:18:34.504Z,96596.09
2022-09-23T08:21:01.404Z,96650.94
2022-09-23T08:23:33.260Z,96595.38
2022-09-23T08:26:02.834Z,96634.22
2022-09-23T08:28:30.226Z,96641.66
2022-09-23T08:30:57.033Z,96632.53
2022-09-23T08:33:24.109Z,96595.09
2022-09-23T08:35:52.148Z,96641.88
2022-09-23T08:38:20.412Z,96615.66
2022-09-23T08:40:49.596Z,96611.41
2022-09-23T08:43:26.685Z,96574.53
2022-09-23T08:45:56.835Z,96642.31
2022-09-23T08:48:30.043Z,96637.69
2022-09-23T08:51:05.274Z,96614.41
2022-09-23T08:53:36.647Z,96638.31
2022-09-23T08:56:07.222Z,96628.56
2022-09-23T08:58:39.814Z,96634.44
2022-09-23T09:01:34.648Z,96627.16
2022-09-23T09:04:05.773Z,96634.28
2022-09-23T09:06:52.384Z,96597.34
2022-09-23T09:09:29.237Z,96642.28
2022-09-23T09:12:14.181Z,96640.91
2022-09-23T09:14:58.137Z,96643.44
2022-09-23T09:17:48.365Z,96635.88
2022-09-23T09:20:14.974Z,96634.25
2022-09-23T09:22:48.408Z,96628.28
2022-09-23T09:25:34.129Z,96626.03
2022-09-23T09:28:01.387Z,96598.31
2022-09-23T09:30:28.311Z,96613.56
2022-09-23T09:33:01.959Z,96623.03
2022-09-23T09:35:42.000Z,96624.81
2022-09-23T09:38:08.677Z,96603.84
2022-09-23T09:40:35.390Z,96574.34
2022-09-23T09:43:05.449Z,96578.16
2022-09-23T09:46:06.619Z,96605.19
2022-09-23T09:48:39.264Z,96568.84
2022-09-23T09:51:24.383Z,96598.75
2022-09-23T09:53:55.683Z,96552.97
2022-09-23T09:56:34.585Z,96563.91
2022-09-23T09:59:10.889Z,96584.66
2022-09-23T10:01:38.055Z,96583.91
2022-09-23T10:04:19.894Z,96564.13
2022-09-23T10:07:16.691Z,96579.59
2022-09-23T10:09:50.890Z,96575.63
2022-09-23T10:12:18.987Z,96577.63
2022-09-23T10:14:50.569Z,96582.25
2022-09-23T10:17:24.543Z,96581.25
2022-09-23T10:20:00.843Z,96551.44
2022-09-23T10:22:33.306Z,96548.44
2022-09-23T10:25:07.431Z,96553.59
2022-09-23T10:27:36.133Z,96543.00
2022-09-23T10:30:21.594Z,96482.72
2022-09-23T10:32:48.811Z,96546.78
2022-09-23T10:35:22.605Z,96516.00
2022-09-23T10:37:56.522Z,96567.09
2022-09-23T10:40:54.220Z,96565.06
2022-09-23T10:43:45.701Z,96561.78
2022-09-23T10:46:38.529Z,96568.53
2022-09-23T10:49:40.436Z,96563.66
2022-09-23T10:52:42.538Z,96526.78
2022-09-23T10:55:37.152Z,96544.47
2022-09-23T10:58:25.637Z,96555.47
2022-09-23T11:01:05.816Z,96555.47
2022-09-23T11:03:50.831Z,96552.19
2022-09-23T11:06:26.772Z,96548.34
2022-09-23T11:09:07.479Z,96535.22
2022-09-23T11:11:46.312Z,96545.34
2022-09-23T11:14:23.870Z,96545.34
2022-09-23T11:16:53.490Z,96538.38
2022-09-23T11:19:45.854Z,96543.06
2022-09-23T11:22:32.239Z,96549.06
2022-09-23T11:25:40.278Z,96543.97
2022-09-23T11:28:37.927Z,96542.69
2022-09-23T11:31:25.468Z,96542.19
2022-09-23T11:34:01.707Z,96533.91
2022-09-23T11:36:37.370Z,96522.84
2022-09-23T11:39:19.532Z,96527.19
2022-09-23T11:41:48.197Z,96437.22
2022-09-23T11:44:31.786Z,96506.50
2022-09-23T11:47:07.563Z,96526.91
2022-09-23T11:49:43.204Z,96513.47
2022-09-23T11:52:20.585Z,96494.50
2022-09-23T11:54:56.542Z,96508.44
2022-09-23T11:57:26.210Z,96506.25
2022-09-23T12:00:12.708Z,96502.06
2022-09-23T12:03:05.619Z,96503.97
2022-09-23T12:05:44.687Z,96468.25
2022-09-23T12:08:28.581Z,96449.03
2022-09-23T12:11:06.500Z,96489.22
2022-09-23T12:13:49.637Z,96494.31
2022-09-23T12:16:53.682Z,96489.50
2022-09-23T12:19:28.142Z,96484.09
2022-09-23T12:22:09.738Z,96491.63
2022-09-23T12:24:50.328Z,96478.19
2022-09-23T12:27:25.046Z,96471.75
2022-09-23T12:29:56.862Z,96444.84
2022-09-23T12:32:24.994Z,96443.09
2022-09-23T12:34:53.439Z,96446.34
2022-09-23T12:37:45.278Z,96449.25
2022-09-23T12:40:28.302Z,96484.06
2022-09-23T12:42:55.145Z,96460.84
2022-09-23T12:45:32.609Z,96490.19
2022-09-23T12:48:00.865Z,96493.94
2022-09-23T12:50:46.174Z,96475.38
2022-09-23T12:53:34.783Z,96484.25
2022-09-23T12:56:19.759Z,96452.72
2022-09-23T12:58:46.305Z,96471.16
2022-09-23T13:01:17.128Z,96478.94
2022-09-23T13:04:10.737Z,96436.41
2022-09-23T13:06:56.586Z,96432.53
2022-09-23T13:09:27.347Z,96420.06
2022-09-23T13:11:59.882Z,96437.63
2022-09-23T13:14:29.066Z,96418.38
2022-09-23T13:16:58.489Z,96430.38
2022-09-23T13:19:28.071Z,96432.97
2022-09-23T13:21:54.601Z,96434.75
2022-09-23T13:24:31.082Z,96435.13
2022-09-23T13:27:13.052Z,96404.03
2022-09-23T13:30:04.846Z,96429.72
2022-09-23T13:32:35.787Z,96425.81
2022-09-23T13:35:18.638Z,96430.97
2022-09-23T13:37:49.718Z,96421.50
2022-09-23T13:40:19.604Z,96402.66
2022-09-23T13:43:00.397Z,96369.78
2022-09-23T13:45:29.501Z,96371.38
2022-09-23T13:48:07.388Z,96393.13
2022-09-23T13:50:38.482Z,96415.00
2022-09-23T13:53:13.302Z,96413.69
2022-09-23T13:55:41.006Z,96375.44
2022-09-23T13:58:17.334Z,96403.84
2022-09-23T14:00:44.555Z,96373.38
2022-09-23T14:03:26.300Z,96401.25
2022-09-23T14:05:55.403Z,96400.25
2022-09-23T14:08:22.746Z,96380.41
2022-09-23T14:10:49.659Z,96346.81
2022-09-23T14:13:34.026Z,96397.69
2022-09-23T14:16:04.099Z,96373.13
2022-09-23T14:18:36.607Z,96403.09
2022-09-23T14:21:04.031Z,96367.81
2022-09-23T14:23:31.001Z,96393.50
2022-09-23T14:25:59.063Z,96366.94
2022-09-23T14:28:27.660Z,96363.78
2022-09-23T14:30:58.353Z,96360.44
2022-09-23T14:33:33.339Z,96385.06
2022-09-23T14:36:29.287Z,96381.66
2022-09-23T14:39:12.536Z,96378.97
2022-09-23T14:41:42.601Z,96314.56
2022-09-23T14:44:25.061Z,96350.19
2022-09-23T14:46:59.664Z,96369.03
2022-09-23T14:49:27.449Z,96369.34
2022-09-23T14:52:01.267Z,96361.34
2022-09-23T14:54:40.030Z,96359.75
2022-09-23T14:57:25.468Z,96361.97
2022-09-23T15:00:01.338Z,96351.91
2022-09-23T15:02:28.976Z,96353.13
2022-09-23T15:05:17.861Z,96350.31
2022-09-23T15:07:52.584Z,96346.53
2022-09-23T15:10:30.443Z,96343.97
2022-09-23T15:13:07.307Z,96327.03
2022-09-23T15:15:35.619Z,96340.38
2022-09-23T15:18:08.053Z,96340.41
2022-09-23T15:20:35.882Z,96289.38
2022-09-23T15:23:02.555Z,96332.66
2022-09-23T15:25:33.685Z,96336.72
2022-09-23T15:28:15.878Z,96333.41
2022-09-23T15:30:42.817Z,96314.56
2022-09-23T15:33:14.893Z,96284.81
2022-09-23T15:35:46.560Z,96326.47
2022-09-23T15:38:13.637Z,96317.53
2022-09-23T15:40:40.381Z,96276.25
2022-09-23T15:43:20.505Z,96304.03
2022-09-23T15:45:54.706Z,96266.47
2022-09-23T15:48:27.840Z,96314.72
2022-09-23T15:50:55.032Z,96257.94
2022-09-23T15:53:24.538Z,96306.31
2022-09-23T15:55:51.620Z,96246.97
2022-09-23T15:58:19.204Z,96297.34
2022-09-23T16:00:46.913Z,96259.00
2022-09-23T16:03:15.114Z,96302.75
2022-09-23T16:05:47.262Z,96251.44
2022-09-23T16:08:14.767Z,96306.69
2022-09-23T16:10:43.047Z,96300.66
2022-09-23T16:13:13.929Z,96303.63
2022-09-23T16:15:41.362Z,96253.41
2022-09-23T16:18:09.688Z,96294.28
2022-09-23T16:20:39.253Z,96211.56
2022-09-23T16:23:39.628Z,96293.06
2022-09-23T16:26:13.892Z,96288.41
2022-09-23T16:29:09.493Z,96275.25
2022-09-23T16:31:40.093Z,96171.00
2022-09-23T16:34:07.125Z,96268.81
2022-09-23T16:36:39.507Z,96283.28
2022-09-23T16:39:09.666Z,96278.66
2022-09-23T16:41:36.968Z,96241.97
2022-09-23T16:44:07.369Z,96221.78
2022-09-23T16:46:34.853Z,96267.72
2022-09-23T16:49:01.567Z,96267.28
2022-09-23T16:51:38.271Z,96211.41
2022-09-23T16:54:10.093Z,96220.34
2022-09-23T16:56:38.673Z,96199.59
2022-09-23T16:59:05.489Z,96244.56
2022-09-23T17:01:50.982Z,96270.56
2022-09-23T17:04:19.314Z,96239.09
2022-09-23T17:06:50.101Z,96261.19
2022-09-23T17:09:18.890Z,96265.19
2022-09-23T17:11:49.033Z,96223.88
2022-09-23T17:14:16.436Z,96259.69
2022-09-23T17:16:43.737Z,96260.69
2022-09-23T17:19:11.839Z,96253.09
2022-09-23T17:21:39.112Z,96224.41
2022-09-23T17:24:05.957Z,96253.97
2022-09-23T17:26:32.954Z,96259.78
2022-09-23T17:29:01.498Z,96239.13
2022-09-23T17:31:28.370Z,96208.53
2022-09-23T17:33:55.397Z,96252.94
2022-09-23T17:36:22.079Z,96213.56
2022-09-23T17:38:49.526Z,96257.81
2022-09-23T17:41:18.035Z,96256.25
2022-09-23T17:43:45.404Z,96250.81
2022-09-23T17:46:14.610Z,96259.78
2022-09-23T17:48:43.256Z,96235.13
2022-09-23T17:51:16.060Z,96246.03
2022-09-23T17:53:45.356Z,96250.78
2022-09-23T17:56:17.160Z,96237.53
2022-09-23T17:58:44.878Z,96250.09
2022-09-23T18:01:20.360Z,96250.63
2022-09-23T18:03:47.835Z,96247.22
2022-09-23T18:06:18.220Z,96257.22
2022-09-23T18:08:48.614Z,96241.50
2022-09-23T18:11:23.768Z,96258.75
2022-09-23T18:13:59.381Z,96262.50
2022-09-23T18:16:29.133Z,96248.00
2022-09-23T18:19:01.938Z,96203.97
2022-09-23T18:21:31.681Z,96254.16
2022-09-23T18:24:21.381Z,96130.25
2022-09-23T18:26:47.254Z,96222.72
2022-09-23T18:29:14.122Z,96239.34
2022-09-23T18:31:41.174Z,96221.91
2022-09-23T18:34:16.192Z,96247.91
2022-09-23T18:36:43.499Z,96206.50
2022-09-23T18:39:10.132Z,96137.50
2022-09-23T18:41:36.949Z,96223.63
2022-09-23T18:44:06.657Z,96253.69
2022-09-23T18:46:33.304Z,96209.75
2022-09-23T18:49:18.747Z,96251.50
2022-09-23T18:51:57.389Z,96240.06
2022-09-23T18:54:26.092Z,96248.84
2022-09-23T18:56:53.224Z,96203.28
2022-09-23T18:59:24.676Z,96249.56
2022-09-23T19:01:51.593Z,96219.41
2022-09-23T19:04:20.394Z,96201.63
2022-09-23T19:06:47.813Z,96241.13
2022-09-23T19:09:15.767Z,96247.78
2022-09-23T19:11:42.928Z,96229.63
2022-09-23T19:14:11.397Z,96255.78
2022-09-23T19:16:39.786Z,96218.66
2022-09-23T19:19:06.895Z,96247.44
2022-09-23T19:21:33.869Z,96221.47
2022-09-23T19:24:05.628Z,96185.22
2022-09-23T19:26:37.486Z,96228.09
2022-09-23T19:29:05.635Z,96231.13
2022-09-23T19:31:35.114Z,96219.94
2022-09-23T19:34:10.813Z,96226.53
2022-09-23T19:36:40.052Z,96231.00
2022-09-23T19:39:11.969Z,96192.44
2022-09-23T19:41:38.649Z,96203.00
2022-09-23T19:44:07.548Z,96205.31
2022-09-23T19:46:37.734Z,96217.75
2022-09-23T19:49:06.271Z,96219.28
2022-09-23T19:51:36.995Z,96216.19
2022-09-23T19:54:05.601Z,96214.00
2022-09-23T19:56:33.426Z,96186.56
2022-09-23T19:59:02.953Z,96204.72
2022-09-23T20:01:30.484Z,96211.97
2022-09-23T20:03:57.385Z,96171.72
2022-09-23T20:06:24.093Z,96181.63
2022-09-23T20:08:50.798Z,96185.03
2022-09-23T20:11:23.669Z,96176.19
2022-09-23T20:14:01.205Z,96217.19
2022-09-23T20:16:31.852Z,96214.56
2022-09-23T20:18:59.808Z,96195.66
2022-09-23T20:21:28.330Z,96176.50
2022-09-23T20:23:55.730Z,96209.31
2022-09-23T20:26:41.160Z,96165.06
2022-09-23T20:29:08.945Z,96183.31
2022-09-23T20:31:35.735Z,96184.69
2022-09-23T20:34:05.745Z,96200.31
2022-09-23T20:36:34.054Z,96214.19
2022-09-23T20:39:03.536Z,96211.19
2022-09-23T20:41:33.585Z,96216.94
2022-09-23T20:44:00.340Z,96157.41
2022-09-23T20:46:28.609Z,96171.31
2022-09-23T20:48:56.699Z,96141.88
2022-09-23T20:51:24.895Z,96200.78
2022-09-23T20:53:52.954Z,96184.34
2022-09-23T20:56:21.238Z,96154.34
2022-09-23T20:58:50.453Z,96204.81
2022-09-23T21:01:17.772Z,96139.22
2022-09-23T21:03:46.013Z,96213.41
2022-09-23T21:06:15.540Z,96216.31
2022-09-23T21:08:43.546Z,96137.19
2022-09-23T21:11:12.793Z,96213.44
2022-09-23T21:13:39.812Z,96181.19
2022-09-23T21:16:10.690Z,96211.13
2022-09-23T21:18:38.379Z,96203.69
2022-09-23T21:21:06.333Z,96203.06
2022-09-23T21:23:35.768Z,96213.16
2022-09-23T21:26:04.376Z,96165.00
2022-09-23T21:28:32.191Z,96169.84
2022-09-23T21:31:02.334Z,96169.31
2022-09-23T21:33:30.482Z,96199.88
2022-09-23T21:35:58.940Z,96138.72
2022-09-23T21:38:25.548Z,96181.66
2022-09-23T21:40:59.709Z,96147.13
2022-09-23T21:43:28.110Z,96159.72
2022-09-23T21:45:59.572Z,96202.25
2022-09-23T21:48:28.845Z,96204.34
2022-09-23T21:51:01.186Z,96200.34
2022-09-23T21:53:30.325Z,96175.88
2022-09-23T21:56:21.456Z,96184.53
2022-09-23T21:58:48.339Z,96188.81
2022-09-23T22:01:18.688Z,96196.84
2022-09-23T22:03:50.880Z,96199.66
2022-09-23T22:06:21.660Z,96172.25
2022-09-23T22:08:51.031Z,96178.50
2022-09-23T22:11:38.943Z,96201.22
2022-09-23T22:14:08.070Z,96191.22
2022-09-23T22:16:35.973Z,96171.84
2022-09-23T22:19:06.878Z,96142.44
2022-09-23T22:21:36.549Z,96190.81
2022-09-23T22:24:04.903Z,96158.13
2022-09-23T22:26:33.999Z,96200.38
2022-09-23T22:29:19.307Z,96156.84
2022-09-23T22:32:04.591Z,96199.25
2022-09-23T22:34:49.138Z,96190.59
2022-09-23T22:37:19.486Z,96179.56
2022-09-23T22:39:46.271Z,96172.06
2022-09-23T22:42:13.326Z,96192.66
2022-09-23T22:44:39.939Z,96170.97
2022-09-23T22:47:06.628Z,96188.81
2022-09-23T22:49:33.375Z,96178.31
2022-09-23T22:52:00.183Z,96161.28
2022-09-23T22:54:33.618Z,96131.25
2022-09-23T22:57:04.022Z,96171.28
2022-09-23T22:59:30.749Z,96127.63
2022-09-23T23:01:59.903Z,96170.09
2022-09-23T23:04:27.001Z,96155.34
2022-09-23T23:06:53.572Z,96172.56
2022-09-23T23:09:20.244Z,96123.53
2022-09-23T23:11:47.252Z,96166.41
2022-09-23T23:14:16.631Z,96139.47
2022-09-23T23:16:45.164Z,96162.19
2022-09-23T23:19:14.298Z,96167.59
2022-09-23T23:21:44.789Z,96119.84
2022-09-23T23:24:20.213Z,96159.13
2022-09-23T23:26:47.164Z,96112.25
2022-09-23T23:29:15.726Z,96154.34
2022-09-23T23:31:43.140Z,96153.81
2022-09-23T23:34:15.750Z,96135.34
2022-09-23T23:36:43.641Z,96118.72
2022-09-23T23:39:11.236Z,96120.03
2022-09-23T23:41:39.488Z,96128.72
2022-09-23T23:44:07.735Z,96129.91
2022-09-23T23:46:37.223Z,96147.22
2022-09-23T23:49:04.591Z,96142.75
2022-09-23T23:51:31.231Z,96102.63
2022-09-23T23:53:58.963Z,96078.78
2022-09-23T23:56:27.160Z,96135.47
2022-09-23T23:58:56.173Z,96116.59
